Bhera Weather



Bhera's Current Weather

Temprature 22.5o clear sky

clear sky

Rain: 0 %

Min Temprature22.5o
Max Temprature22.5o
Humidity79
Wind Speed1.41 m/h
Sun Rise05:58:46
Sun Set18:00:50
Current Time: 26-Sep-2022 07:07:19
Lat/Lon: 32.4832, 72.9097




Bhera's Geo Location



Bhera's Weather Forecast

Time Overall Temp Min Temp Max Temp Humidity Wind Speed Rain
26-Sep-2022 (Mon)
08:00:00 light rain 24.070 24.070 24.070 70 1.13 m/h 66 %
11:00:00 light rain 25.740 25.740 29.070 63 1.69 m/h 33 %
14:00:00 clear sky 29.600 29.600 32.370 51 1.27 m/h 0 %
17:00:00 clear sky 31.580 31.580 31.580 46 2.27 m/h 0 %
20:00:00 clear sky 28.440 28.440 28.440 53 0.23 m/h 0 %
23:00:00 clear sky 27.440 27.440 27.440 56 0.23 m/h 0 %
27-Sep-2022 (Tue)
02:00:00 clear sky 26.550 26.550 26.550 59 0.23 m/h 0 %
05:00:00 clear sky 25.260 25.260 25.260 63 1.47 m/h 0 %
08:00:00 clear sky 27.080 27.080 27.080 59 1.85 m/h 0 %
11:00:00 clear sky 31.820 31.820 31.820 45 1.37 m/h 0 %
14:00:00 clear sky 34.150 34.150 34.150 37 1.04 m/h 0 %
17:00:00 clear sky 33.400 33.400 33.400 40 1.58 m/h 0 %
20:00:00 clear sky 29.560 29.560 29.560 49 2.33 m/h 0 %
23:00:00 clear sky 27.960 27.960 27.960 55 2.54 m/h 0 %
28-Sep-2022 (Wed)
02:00:00 clear sky 26.250 26.250 26.250 63 2.01 m/h 0 %
05:00:00 clear sky 25.410 25.410 25.410 67 2.43 m/h 0 %
08:00:00 clear sky 27.280 27.280 27.280 63 3.1 m/h 0 %
11:00:00 clear sky 32.110 32.110 32.110 47 3.21 m/h 0 %
14:00:00 clear sky 34.810 34.810 34.810 37 2.75 m/h 0 %
17:00:00 clear sky 33.770 33.770 33.770 40 2.6 m/h 0 %
20:00:00 clear sky 29.850 29.850 29.850 49 2.96 m/h 0 %
23:00:00 clear sky 27.770 27.770 27.770 57 2.6 m/h 0 %
29-Sep-2022 (Thu)
02:00:00 clear sky 26.500 26.500 26.500 64 2.02 m/h 0 %
05:00:00 clear sky 25.620 25.620 25.620 68 2.35 m/h 0 %
08:00:00 clear sky 27.910 27.910 27.910 62 3.33 m/h 0 %
11:00:00 clear sky 32.710 32.710 32.710 45 3.68 m/h 0 %
14:00:00 clear sky 35.100 35.100 35.100 34 2.36 m/h 0 %
17:00:00 clear sky 34.170 34.170 34.170 37 2.43 m/h 0 %
20:00:00 clear sky 30.000 30.000 30.000 47 3.22 m/h 0 %
23:00:00 few clouds 28.380 28.380 28.380 46 1.25 m/h 0 %
30-Sep-2022 (Fri)
02:00:00 clear sky 26.710 26.710 26.710 56 1.19 m/h 0 %
05:00:00 clear sky 25.950 25.950 25.950 58 1.35 m/h 0 %
08:00:00 clear sky 28.550 28.550 28.550 54 1.92 m/h 0 %
11:00:00 clear sky 33.770 33.770 33.770 37 1.63 m/h 0 %
14:00:00 clear sky 36.470 36.470 36.470 26 0.32 m/h 0 %
17:00:00 clear sky 35.110 35.110 35.110 30 2.04 m/h 0 %
20:00:00 clear sky 30.380 30.380 30.380 41 2.68 m/h 0 %
23:00:00 clear sky 28.300 28.300 28.300 47 2.18 m/h 0 %
01-Oct-2022 (Sat)
02:00:00 clear sky 26.580 26.580 26.580 55 1.29 m/h 0 %
05:00:00 clear sky 25.360 25.360 25.360 62 2.62 m/h 0 %


Bhera's Tourist Spots

Historical Places in Bhera

Famous Cities (61)